Time;durP1;ratioP1;P1;durP2;ratioP2;P2;SDS_P1;SDS_P2;PMS_P1;PMS_P2;Temp;Humidity;BMP_temperature;BMP_pressure;BME280_temperature;BME280_humidity;BME280_pressure;Samples;Min_cycle;Max_cycle;Signal;HPM_P1;HPM_P2
2023/05/04 00:01:42;;;;;;;4.40;3.60;;;;;;;;;;5058609;28;20294;-88
2023/05/04 00:04:12;;;;;;;3.67;3.20;;;;;;;;;;5061327;28;20175;-88
2023/05/04 00:06:40;;;;;;;3.70;3.40;;;;;;;;;;5079352;28;20233;-89
2023/05/04 00:09:08;;;;;;;4.20;3.80;;;;;;;;;;5062628;28;20210;-89
2023/05/04 00:11:36;;;;;;;9.73;3.70;;;;;;;;;;5058959;28;20238;-89
2023/05/04 00:14:05;;;;;;;5.40;3.37;;;;;;;;;;5052011;28;20191;-89
2023/05/04 00:16:32;;;;;;;3.57;3.27;;;;;;;;;;5095071;23;20250;-88
2023/05/04 00:19:00;;;;;;;4.90;3.40;;;;;;;;;;5063189;28;20245;-89
2023/05/04 00:21:30;;;;;;;7.43;3.50;;;;;;;;;;5067264;28;20230;-88
2023/05/04 00:23:57;;;;;;;3.27;2.97;;;;;;;;;;5061118;28;20256;-88
2023/05/04 00:26:24;;;;;;;4.77;3.37;;;;;;;;;;5053230;28;20238;-88
2023/05/04 00:28:51;;;;;;;2.90;2.70;;;;;;;;;;5054085;28;20191;-88
2023/05/04 00:31:24;;;;;;;4.80;3.60;;;;;;;;;;5049843;28;20239;-88
2023/05/04 00:33:52;;;;;;;4.73;3.67;;;;;;;;;;5116384;23;20309;-88
2023/05/04 00:36:20;;;;;;;4.97;3.97;;;;;;;;;;5050896;28;20252;-88
2023/05/04 00:38:50;;;;;;;5.17;3.50;;;;;;;;;;5063442;28;20189;-88
2023/05/04 00:41:17;;;;;;;4.00;3.60;;;;;;;;;;5048118;28;20218;-88
2023/05/04 00:43:46;;;;;;;7.47;3.63;;;;;;;;;;5040272;28;20184;-88
2023/05/04 00:46:13;;;;;;;3.97;3.60;;;;;;;;;;5051148;28;20241;-89
2023/05/04 00:48:45;;;;;;;4.63;3.33;;;;;;;;;;5041192;28;20266;-88
2023/05/04 00:51:13;;;;;;;4.77;3.30;;;;;;;;;;5069371;28;20233;-88
2023/05/04 00:53:42;;;;;;;5.47;3.90;;;;;;;;;;5071132;28;20233;-89
2023/05/04 00:56:10;;;;;;;4.50;3.93;;;;;;;;;;5050895;28;20254;-88
2023/05/04 00:58:41;;;;;;;4.97;4.43;;;;;;;;;;5033408;28;20191;-88
2023/05/04 01:01:12;;;;;;;4.87;3.63;;;;;;;;;;5030880;28;20250;-88
2023/05/04 01:03:40;;;;;;;6.43;3.87;;;;;;;;;;5055298;28;20214;-88
2023/05/04 01:06:16;;;;;;;4.67;3.53;;;;;;;;;;5056533;28;20222;-89
2023/05/04 01:08:58;;;;;;;5.67;3.90;;;;;;;;;;5058377;28;20201;-89
2023/05/04 01:11:28;;;;;;;5.20;4.63;;;;;;;;;;5055872;28;20242;-88
2023/05/04 01:14:02;;;;;;;4.27;3.87;;;;;;;;;;5057957;28;20187;-89
2023/05/04 01:16:30;;;;;;;4.23;3.83;;;;;;;;;;5149250;23;20227;-88
2023/05/04 01:18:57;;;;;;;3.90;3.50;;;;;;;;;;5013766;28;20687;-88
2023/05/04 01:21:31;;;;;;;6.17;3.50;;;;;;;;;;4997825;28;20240;-88
2023/05/04 01:23:59;;;;;;;5.17;4.67;;;;;;;;;;5006330;28;20200;-89
2023/05/04 01:26:28;;;;;;;6.50;4.40;;;;;;;;;;5010939;28;20236;-89
2023/05/04 01:28:58;;;;;;;6.07;4.00;;;;;;;;;;4995262;28;20196;-88
2023/05/04 01:31:26;;;;;;;4.40;4.00;;;;;;;;;;4979100;28;20231;-88
2023/05/04 01:33:54;;;;;;;6.53;4.33;;;;;;;;;;4989960;28;20204;-88
2023/05/04 01:36:21;;;;;;;4.53;3.90;;;;;;;;;;4973190;28;20240;-88
2023/05/04 01:38:50;;;;;;;6.93;4.03;;;;;;;;;;4984944;28;20211;-89
2023/05/04 01:41:17;;;;;;;6.23;4.10;;;;;;;;;;4986646;28;20232;-88
2023/05/04 01:43:44;;;;;;;4.37;3.93;;;;;;;;;;4980809;28;20207;-88
2023/05/04 01:46:11;;;;;;;4.30;3.90;;;;;;;;;;4985201;28;20240;-88
2023/05/04 01:48:38;;;;;;;4.10;3.70;;;;;;;;;;4993618;28;20196;-88
2023/05/04 01:51:05;;;;;;;6.10;4.43;;;;;;;;;;4992957;28;20608;-87
2023/05/04 01:53:32;;;;;;;5.93;3.90;;;;;;;;;;4993273;28;20200;-88
2023/05/04 01:56:01;;;;;;;5.60;3.40;;;;;;;;;;4985281;28;20597;-88
2023/05/04 01:58:28;;;;;;;5.73;3.90;;;;;;;;;;4981441;28;20203;-88
2023/05/04 02:00:58;;;;;;;7.33;4.10;;;;;;;;;;4986497;28;20224;-88
2023/05/04 02:03:25;;;;;;;7.07;4.03;;;;;;;;;;4973394;28;20208;-88
2023/05/04 02:05:52;;;;;;;5.27;4.10;;;;;;;;;;4973116;28;20233;-88
2023/05/04 02:08:19;;;;;;;4.60;4.20;;;;;;;;;;4983842;28;20687;-88
2023/05/04 02:10:46;;;;;;;4.70;3.87;;;;;;;;;;4977675;28;20263;-88
2023/05/04 02:13:15;;;;;;;4.97;4.47;;;;;;;;;;4973435;28;20215;-88
2023/05/04 02:15:42;;;;;;;8.97;4.83;;;;;;;;;;4981947;28;20236;-88
2023/05/04 02:18:09;;;;;;;5.13;4.10;;;;;;;;;;4992767;28;20197;-88
2023/05/04 02:20:36;;;;;;;5.20;4.70;;;;;;;;;;4992437;28;20231;-88
2023/05/04 02:23:03;;;;;;;4.97;4.17;;;;;;;;;;4990709;28;20204;-88
2023/05/04 02:25:31;;;;;;;6.13;4.33;;;;;;;;;;4992165;28;20246;-88
2023/05/04 02:27:58;;;;;;;4.70;4.30;;;;;;;;;;4986943;28;20201;-88
2023/05/04 02:30:26;;;;;;;7.33;4.50;;;;;;;;;;4972270;28;20651;-88
2023/05/04 02:32:53;;;;;;;5.87;4.67;;;;;;;;;;4973337;28;20216;-88
2023/05/04 02:35:20;;;;;;;4.33;3.93;;;;;;;;;;4953322;28;20743;-87
2023/05/04 02:37:47;;;;;;;4.80;4.30;;;;;;;;;;4954297;29;20214;-88
2023/05/04 02:40:14;;;;;;;10.57;4.47;;;;;;;;;;4970608;28;20236;-88
2023/05/04 02:42:42;;;;;;;4.50;4.10;;;;;;;;;;4973400;28;20240;-88
2023/05/04 02:45:09;;;;;;;5.20;4.50;;;;;;;;;;4986479;28;20602;-88
2023/05/04 02:47:38;;;;;;;7.67;4.73;;;;;;;;;;4973850;28;20225;-88
2023/05/04 02:50:05;;;;;;;6.07;4.67;;;;;;;;;;4989239;28;20597;-88
2023/05/04 02:52:32;;;;;;;4.80;4.40;;;;;;;;;;4990606;28;20224;-88
2023/05/04 02:55:00;;;;;;;5.23;4.13;;;;;;;;;;4990475;28;20241;-88
2023/05/04 02:57:27;;;;;;;8.37;4.63;;;;;;;;;;4976566;28;20569;-88
2023/05/04 02:59:54;;;;;;;6.17;4.77;;;;;;;;;;4981021;28;20252;-89
2023/05/04 03:02:21;;;;;;;8.07;4.60;;;;;;;;;;4991735;28;20219;-88
2023/05/04 03:04:49;;;;;;;4.87;4.40;;;;;;;;;;4972758;28;20247;-88
2023/05/04 03:07:17;;;;;;;6.07;4.37;;;;;;;;;;4973148;28;20244;-88
2023/05/04 03:09:44;;;;;;;5.87;4.23;;;;;;;;;;4972864;28;20243;-88
2023/05/04 03:12:11;;;;;;;4.60;4.20;;;;;;;;;;4973195;28;20240;-89
2023/05/04 03:14:38;;;;;;;4.83;4.33;;;;;;;;;;4972435;28;20268;-88
2023/05/04 03:17:05;;;;;;;7.50;4.67;;;;;;;;;;4972953;28;20242;-88
2023/05/04 03:19:32;;;;;;;6.37;4.43;;;;;;;;;;4972694;28;20223;-88
2023/05/04 03:22:01;;;;;;;4.60;4.17;;;;;;;;;;4972629;28;20694;-89
2023/05/04 03:24:28;;;;;;;5.60;4.47;;;;;;;;;;4972631;28;20204;-88
2023/05/04 03:26:55;;;;;;;4.70;4.30;;;;;;;;;;4973184;28;20217;-88
2023/05/04 03:29:22;;;;;;;4.93;4.50;;;;;;;;;;4975232;28;20212;-84
2023/05/04 03:31:49;;;;;;;8.97;4.60;;;;;;;;;;4976976;28;20228;-88
2023/05/04 03:34:20;;;;;;;6.37;4.33;;;;;;;;;;4976511;28;20208;-88
2023/05/04 03:36:47;;;;;;;5.73;4.77;;;;;;;;;;4994400;28;20236;-87
2023/05/04 03:39:16;;;;;;;6.07;4.70;;;;;;;;;;4995383;28;20261;-88
2023/05/04 03:41:43;;;;;;;4.50;4.10;;;;;;;;;;4994224;28;20275;-87
2023/05/04 03:44:10;;;;;;;5.90;4.83;;;;;;;;;;4995257;28;20595;-87
2023/05/04 03:46:37;;;;;;;6.43;4.70;;;;;;;;;;4994850;28;20247;-87
2023/05/04 03:49:04;;;;;;;7.80;5.23;;;;;;;;;;4995401;28;20215;-88
2023/05/04 03:51:31;;;;;;;6.57;5.27;;;;;;;;;;4994631;28;20247;-88
2023/05/04 03:53:58;;;;;;;8.53;5.70;;;;;;;;;;4994869;28;20215;-87
2023/05/04 03:56:27;;;;;;;8.83;5.93;;;;;;;;;;4994623;28;20236;-87
2023/05/04 03:58:54;;;;;;;8.17;6.10;;;;;;;;;;4995428;28;20239;-88
2023/05/04 04:01:21;;;;;;;8.10;5.93;;;;;;;;;;4994555;28;20238;-88
2023/05/04 04:03:48;;;;;;;6.57;5.93;;;;;;;;;;4994715;28;20207;-87
2023/05/04 04:06:15;;;;;;;7.13;5.93;;;;;;;;;;4994627;28;20266;-88
2023/05/04 04:08:42;;;;;;;6.17;5.30;;;;;;;;;;4994727;28;20689;-87
2023/05/04 04:11:09;;;;;;;6.90;5.73;;;;;;;;;;4994311;28;20242;-88
2023/05/04 04:13:37;;;;;;;6.63;5.93;;;;;;;;;;4994815;28;20210;-88
2023/05/04 04:16:05;;;;;;;6.57;5.97;;;;;;;;;;4994226;28;20239;-88
2023/05/04 04:18:32;;;;;;;8.00;6.00;;;;;;;;;;4994654;28;20225;-88
2023/05/04 04:20:59;;;;;;;6.77;6.00;;;;;;;;;;4994147;28;20262;-88
2023/05/04 04:23:26;;;;;;;6.47;5.57;;;;;;;;;;4994622;28;20307;-88
2023/05/04 04:25:53;;;;;;;6.77;6.07;;;;;;;;;;4993970;28;20243;-86
2023/05/04 04:28:21;;;;;;;7.90;6.03;;;;;;;;;;4994556;28;20215;-87
2023/05/04 04:30:49;;;;;;;8.90;6.77;;;;;;;;;;4993793;28;20592;-87
2023/05/04 04:33:16;;;;;;;7.67;6.60;;;;;;;;;;4994013;28;20701;-88
2023/05/04 04:35:44;;;;;;;7.73;6.27;;;;;;;;;;4993707;28;20243;-88
2023/05/04 04:38:11;;;;;;;7.50;6.40;;;;;;;;;;4994444;28;20246;-87
2023/05/04 04:40:38;;;;;;;8.13;6.50;;;;;;;;;;4993508;28;20258;-88
2023/05/04 04:43:05;;;;;;;8.60;7.23;;;;;;;;;;4994262;28;20207;-89
2023/05/04 04:45:32;;;;;;;9.83;7.27;;;;;;;;;;4993377;28;20250;-89
2023/05/04 04:48:02;;;;;;;9.27;7.77;;;;;;;;;;4993811;28;20210;-89
2023/05/04 04:50:29;;;;;;;10.40;6.87;;;;;;;;;;4993501;28;20235;-88
2023/05/04 04:52:56;;;;;;;11.97;7.30;;;;;;;;;;4993389;28;20270;-88
2023/05/04 04:55:24;;;;;;;9.53;6.97;;;;;;;;;;4993329;28;20250;-88
2023/05/04 04:57:51;;;;;;;13.37;8.20;;;;;;;;;;4993799;28;20758;-88
2023/05/04 05:00:21;;;;;;;12.30;7.77;;;;;;;;;;5008550;28;20223;-88
2023/05/04 05:02:49;;;;;;;11.77;8.30;;;;;;;;;;5019427;28;20188;-89
2023/05/04 05:05:19;;;;;;;12.70;8.77;;;;;;;;;;5018060;28;20258;-88
2023/05/04 05:07:48;;;;;;;8.60;7.70;;;;;;;;;;5047587;23;20266;-88
2023/05/04 05:13:20;;;;;;;11.47;7.87;;;;;;;;;;5271978;23;20221;-87
2023/05/04 05:15:52;;;;;;;11.57;7.47;;;;;;;;;;5081672;23;20237;-85
2023/05/04 05:18:22;;;;;;;11.80;8.17;;;;;;;;;;5552757;22;20416;-86
2023/05/04 05:20:55;;;;;;;10.87;8.07;;;;;;;;;;5097100;28;20213;-87
2023/05/04 05:23:29;;;;;;;9.87;7.70;;;;;;;;;;5098480;28;20223;-87
2023/05/04 05:31:19;;;;;;;8.97;7.80;;;;;;;;;;5074256;28;20259;-88
2023/05/04 05:33:47;;;;;;;14.23;9.00;;;;;;;;;;5078514;28;20196;-88
2023/05/04 05:36:24;;;;;;;10.20;8.53;;;;;;;;;;5075963;28;20241;-88
2023/05/04 05:38:52;;;;;;;11.77;9.10;;;;;;;;;;5078268;28;20198;-87
2023/05/04 05:41:21;;;;;;;12.40;8.70;;;;;;;;;;5444078;23;20242;-87
2023/05/04 05:43:48;;;;;;;13.40;9.30;;;;;;;;;;5109986;23;20209;-87
2023/05/04 05:46:19;;;;;;;9.73;7.73;;;;;;;;;;5088513;28;20229;-88
2023/05/04 05:48:51;;;;;;;8.60;7.70;;;;;;;;;;5097055;28;20203;-88
2023/05/04 05:51:22;;;;;;;8.47;7.57;;;;;;;;;;5096016;28;20205;-88
2023/05/04 05:53:49;;;;;;;9.13;6.97;;;;;;;;;;5090971;28;20624;-88
2023/05/04 05:56:16;;;;;;;10.03;7.43;;;;;;;;;;5072005;28;20241;-88
2023/05/04 05:58:43;;;;;;;10.90;7.60;;;;;;;;;;5072109;28;20562;-88
2023/05/04 06:01:10;;;;;;;9.60;7.77;;;;;;;;;;5071948;28;20707;-88
2023/05/04 06:03:38;;;;;;;10.43;7.63;;;;;;;;;;5072017;28;20663;-88
2023/05/04 06:06:05;;;;;;;12.13;8.10;;;;;;;;;;5071414;28;20604;-88
2023/05/04 06:08:33;;;;;;;11.43;8.10;;;;;;;;;;5072320;28;20205;-88
2023/05/04 06:11:00;;;;;;;11.53;9.67;;;;;;;;;;5071395;28;20240;-88
2023/05/04 06:13:27;;;;;;;10.80;8.47;;;;;;;;;;5076626;28;20729;-88
2023/05/04 06:15:55;;;;;;;12.47;8.50;;;;;;;;;;5078138;28;20619;-88
2023/05/04 06:18:22;;;;;;;12.60;9.07;;;;;;;;;;5075004;28;20209;-88
2023/05/04 06:20:49;;;;;;;16.63;9.90;;;;;;;;;;5075267;28;20240;-88
2023/05/04 06:23:16;;;;;;;14.70;8.90;;;;;;;;;;5077860;28;20201;-88
2023/05/04 06:25:45;;;;;;;12.37;8.53;;;;;;;;;;5072644;28;20240;-88
2023/05/04 06:28:12;;;;;;;15.43;9.20;;;;;;;;;;5074417;28;20298;-89
2023/05/04 06:30:39;;;;;;;10.37;8.20;;;;;;;;;;5074430;28;20244;-89
2023/05/04 06:33:06;;;;;;;11.80;7.90;;;;;;;;;;5078143;28;20221;-89
2023/05/04 06:35:33;;;;;;;10.37;7.47;;;;;;;;;;5073768;28;20240;-88
2023/05/04 06:38:00;;;;;;;14.10;7.87;;;;;;;;;;5076599;28;20558;-88
2023/05/04 06:40:27;;;;;;;8.70;7.80;;;;;;;;;;5075394;28;20316;-89
2023/05/04 06:42:55;;;;;;;10.43;8.13;;;;;;;;;;5071688;28;20694;-88
2023/05/04 06:45:22;;;;;;;11.13;6.67;;;;;;;;;;5072598;28;20707;-88
2023/05/04 06:47:49;;;;;;;13.73;6.47;;;;;;;;;;5071780;28;20208;-88
2023/05/04 06:50:16;;;;;;;8.50;6.97;;;;;;;;;;5071081;28;20233;-88
2023/05/04 06:52:45;;;;;;;10.27;6.90;;;;;;;;;;5071325;28;20240;-89
2023/05/04 06:55:12;;;;;;;8.70;7.10;;;;;;;;;;5071548;28;20286;-89
2023/05/04 06:57:39;;;;;;;11.23;7.00;;;;;;;;;;5071971;28;20240;-88
2023/05/04 07:00:10;;;;;;;11.33;5.83;;;;;;;;;;5071333;28;20237;-88
2023/05/04 07:02:37;;;;;;;6.43;5.50;;;;;;;;;;5073025;28;20209;-89
2023/05/04 07:05:05;;;;;;;8.03;6.33;;;;;;;;;;5075368;28;20703;-89
2023/05/04 07:07:32;;;;;;;8.03;5.93;;;;;;;;;;5075364;28;20215;-89
2023/05/04 07:09:59;;;;;;;6.33;5.00;;;;;;;;;;5074987;28;20236;-89
2023/05/04 07:12:26;;;;;;;8.90;5.47;;;;;;;;;;5076462;28;20229;-90
2023/05/04 07:14:53;;;;;;;11.60;6.07;;;;;;;;;;5080197;28;20565;-90
2023/05/04 07:17:24;;;;;;;10.87;5.73;;;;;;;;;;5081852;28;20703;-89
2023/05/04 07:19:52;;;;;;;6.47;5.23;;;;;;;;;;5081133;28;20591;-87
2023/05/04 07:22:19;;;;;;;8.93;6.07;;;;;;;;;;5080459;28;20206;-89
2023/05/04 07:24:46;;;;;;;7.50;5.53;;;;;;;;;;5077721;28;20233;-87
2023/05/04 07:27:13;;;;;;;5.63;5.13;;;;;;;;;;5078128;28;20229;-87
2023/05/04 07:29:41;;;;;;;6.97;5.07;;;;;;;;;;5079452;28;20208;-87
2023/05/04 07:32:08;;;;;;;36.90;33.10;;;;;;;;;;5078972;28;20261;-88
2023/05/04 07:34:36;;;;;;;8.73;5.57;;;;;;;;;;5079535;28;20209;-88
2023/05/04 07:37:04;;;;;;;12.80;7.33;;;;;;;;;;5078389;28;20228;-88
2023/05/04 07:39:31;;;;;;;6.30;5.00;;;;;;;;;;5077954;28;20575;-86
2023/05/04 07:41:58;;;;;;;9.27;4.67;;;;;;;;;;5077083;28;20202;-87
2023/05/04 07:44:25;;;;;;;6.13;4.50;;;;;;;;;;5074395;28;20205;-87
2023/05/04 07:46:52;;;;;;;11.77;5.30;;;;;;;;;;5075085;28;20332;-87
2023/05/04 07:49:19;;;;;;;5.17;4.73;;;;;;;;;;5074470;28;20592;-88
2023/05/04 07:51:48;;;;;;;6.27;4.20;;;;;;;;;;5073733;28;20726;-88
2023/05/04 07:54:15;;;;;;;7.60;4.70;;;;;;;;;;5074147;28;20738;-87
2023/05/04 07:56:42;;;;;;;6.13;4.80;;;;;;;;;;5073777;28;20240;-88
2023/05/04 07:59:09;;;;;;;6.07;4.77;;;;;;;;;;5074027;28;20205;-88
2023/05/04 08:01:36;;;;;;;8.50;4.37;;;;;;;;;;5073657;28;20715;-87
2023/05/04 08:04:03;;;;;;;7.50;4.73;;;;;;;;;;5073674;28;20786;-88
2023/05/04 08:06:32;;;;;;;7.13;4.90;;;;;;;;;;5073455;28;20241;-86
2023/05/04 08:09:01;;;;;;;9.43;5.40;;;;;;;;;;5074085;28;20286;-87
2023/05/04 08:11:28;;;;;;;5.03;4.30;;;;;;;;;;5073402;28;20234;-88
2023/05/04 08:13:55;;;;;;;8.17;4.80;;;;;;;;;;5073314;28;20229;-86
2023/05/04 08:16:22;;;;;;;7.67;4.57;;;;;;;;;;5073411;28;20619;-88
2023/05/04 08:18:49;;;;;;;5.23;4.53;;;;;;;;;;5074086;28;20209;-87
2023/05/04 08:21:16;;;;;;;7.53;4.70;;;;;;;;;;5073269;28;20233;-88
2023/05/04 08:23:43;;;;;;;8.23;5.30;;;;;;;;;;5074069;28;20212;-89
2023/05/04 08:26:11;;;;;;;6.57;4.80;;;;;;;;;;5073160;28;20241;-88
2023/05/04 08:28:39;;;;;;;5.27;4.77;;;;;;;;;;5074086;28;20210;-88
2023/05/04 08:31:07;;;;;;;7.50;4.70;;;;;;;;;;5073495;28;20246;-89
2023/05/04 08:33:34;;;;;;;5.67;4.30;;;;;;;;;;5073734;28;20257;-89
2023/05/04 08:36:01;;;;;;;4.73;4.20;;;;;;;;;;5073394;28;20236;-90
2023/05/04 08:38:28;;;;;;;4.73;4.20;;;;;;;;;;5073817;28;20205;-90
2023/05/04 08:40:56;;;;;;;6.50;4.53;;;;;;;;;;5073350;28;20264;-89
2023/05/04 08:43:24;;;;;;;5.25;4.57;;;;;;;;;;5074028;28;20209;-89
2023/05/04 08:45:51;;;;;;;5.32;4.20;;;;;;;;;;5073293;28;20240;-90
2023/05/04 08:48:18;;;;;;;5.07;4.22;;;;;;;;;;5073965;28;20705;-90
2023/05/04 08:50:46;;;;;;;5.28;4.28;;;;;;;;;;5073430;28;20244;-89
2023/05/04 08:53:13;;;;;;;5.90;4.15;;;;;;;;;;5073440;28;20665;-89
2023/05/04 08:55:43;;;;;;;6.47;4.43;;;;;;;;;;5073375;28;20240;-89
2023/05/04 08:58:11;;;;;;;5.65;3.90;;;;;;;;;;5073761;28;20569;-89
2023/05/04 09:00:40;;;;;;;5.95;4.00;;;;;;;;;;5073385;28;20238;-89
2023/05/04 09:03:08;;;;;;;4.25;3.85;;;;;;;;;;5074647;28;20219;-88
2023/05/04 09:05:35;;;;;;;4.97;4.47;;;;;;;;;;5072997;28;20320;-86
2023/05/04 09:08:02;;;;;;;8.18;4.20;;;;;;;;;;5073001;28;20312;-88
2023/05/04 09:10:29;;;;;;;7.15;3.97;;;;;;;;;;5072833;28;20324;-87
2023/05/04 09:12:56;;;;;;;6.35;5.10;;;;;;;;;;5073877;28;20232;-89
2023/05/04 09:15:24;;;;;;;5.40;4.00;;;;;;;;;;5072255;28;20229;-89
2023/05/04 09:17:59;;;;;;;5.13;4.43;;;;;;;;;;5072909;28;20238;-86
2023/05/04 09:20:26;;;;;;;5.72;4.07;;;;;;;;;;5071947;28;20229;-84
2023/05/04 09:23:05;;;;;;;4.40;3.65;;;;;;;;;;5071959;28;20232;-84
2023/05/04 09:25:33;;;;;;;5.50;4.32;;;;;;;;;;5071851;28;20271;-83
2023/05/04 09:28:00;;;;;;;5.05;4.55;;;;;;;;;;5072235;28;20251;-85
2023/05/04 09:30:27;;;;;;;5.97;3.60;;;;;;;;;;5072008;28;20235;-86
2023/05/04 09:32:54;;;;;;;4.57;3.90;;;;;;;;;;5071959;28;20626;-86
2023/05/04 09:35:29;;;;;;;6.47;4.50;;;;;;;;;;5071871;28;20244;-85
2023/05/04 09:37:56;;;;;;;6.20;4.03;;;;;;;;;;5072336;28;20185;-84
2023/05/04 09:40:31;;;;;;;5.30;4.40;;;;;;;;;;5071759;28;20233;-84
2023/05/04 09:42:59;;;;;;;4.47;4.03;;;;;;;;;;5072179;28;20196;-84
2023/05/04 09:45:27;;;;;;;5.55;3.97;;;;;;;;;;5071699;28;20241;-84
2023/05/04 09:47:54;;;;;;;5.13;4.15;;;;;;;;;;5072421;28;20291;-84
2023/05/04 09:50:24;;;;;;;5.63;3.60;;;;;;;;;;5071749;28;20236;-84
2023/05/04 09:52:53;;;;;;;6.50;3.72;;;;;;;;;;5071845;28;20773;-84
2023/05/04 09:55:20;;;;;;;4.03;3.42;;;;;;;;;;5071730;28;20264;-84
2023/05/04 09:57:49;;;;;;;4.38;3.97;;;;;;;;;;5071208;28;20236;-84
2023/05/04 10:00:17;;;;;;;3.55;3.25;;;;;;;;;;5071608;28;20236;-84
2023/05/04 10:02:45;;;;;;;5.63;4.15;;;;;;;;;;5071986;28;20205;-84
2023/05/04 10:05:15;;;;;;;4.28;3.88;;;;;;;;;;5071249;28;20233;-83
2023/05/04 10:07:43;;;;;;;4.10;3.80;;;;;;;;;;5071877;28;20706;-84
2023/05/04 10:10:12;;;;;;;5.72;3.33;;;;;;;;;;5071377;28;20233;-84
2023/05/04 10:12:39;;;;;;;6.40;4.30;;;;;;;;;;5071778;28;20296;-84
2023/05/04 10:15:07;;;;;;;7.68;3.67;;;;;;;;;;5071392;28;20240;-84
2023/05/04 10:17:38;;;;;;;5.05;3.70;;;;;;;;;;5072064;28;20583;-84
2023/05/04 10:20:10;;;;;;;4.30;3.90;;;;;;;;;;5071075;28;20229;-84
2023/05/04 10:22:43;;;;;;;4.25;3.75;;;;;;;;;;5071638;28;20201;-84
2023/05/04 10:25:36;;;;;;;7.13;3.60;;;;;;;;;;5071090;28;20235;-84
2023/05/04 10:28:10;;;;;;;4.03;3.63;;;;;;;;;;5071861;28;20197;-84
2023/05/04 10:30:38;;;;;;;6.22;3.80;;;;;;;;;;5071045;28;20229;-84
2023/05/04 10:33:06;;;;;;;3.60;3.30;;;;;;;;;;5071710;28;20271;-84
2023/05/04 10:35:33;;;;;;;4.43;3.42;;;;;;;;;;5071089;28;20239;-83
2023/05/04 10:38:00;;;;;;;4.30;3.58;;;;;;;;;;5073903;28;20228;-84
2023/05/04 10:40:36;;;;;;;6.90;3.72;;;;;;;;;;5075307;28;20241;-84
2023/05/04 10:43:03;;;;;;;4.30;3.78;;;;;;;;;;5076008;28;20251;-84
2023/05/04 10:45:37;;;;;;;5.85;3.70;;;;;;;;;;5075304;28;20233;-84
2023/05/04 10:48:04;;;;;;;4.07;3.40;;;;;;;;;;5077878;28;20254;-84
2023/05/04 10:50:41;;;;;;;3.92;3.30;;;;;;;;;;5076286;28;20229;-84
2023/05/04 10:53:08;;;;;;;7.35;3.97;;;;;;;;;;5076097;28;20245;-84
2023/05/04 10:55:41;;;;;;;8.40;3.65;;;;;;;;;;5075340;28;20237;-84
2023/05/04 10:58:10;;;;;;;5.60;3.40;;;;;;;;;;5075311;28;20181;-84
2023/05/04 11:00:38;;;;;;;5.20;3.30;;;;;;;;;;5074663;28;20243;-84
2023/05/04 11:03:06;;;;;;;5.50;3.58;;;;;;;;;;5075199;28;20216;-84
2023/05/04 11:05:41;;;;;;;4.40;3.55;;;;;;;;;;5074550;28;20241;-85
2023/05/04 11:08:15;;;;;;;3.55;3.25;;;;;;;;;;5075300;28;20189;-85
2023/05/04 11:10:44;;;;;;;4.13;3.70;;;;;;;;;;5074672;28;20233;-84
2023/05/04 11:13:11;;;;;;;3.65;3.35;;;;;;;;;;5074679;28;20212;-84
2023/05/04 11:15:45;;;;;;;4.80;4.40;;;;;;;;;;5074314;28;20609;-84
2023/05/04 11:18:12;;;;;;;3.95;3.53;;;;;;;;;;5074659;28;20573;-84
2023/05/04 11:20:40;;;;;;;5.53;3.70;;;;;;;;;;5074271;28;20236;-84
2023/05/04 11:23:09;;;;;;;4.82;3.50;;;;;;;;;;5074500;28;20217;-84
2023/05/04 11:25:36;;;;;;;4.35;3.30;;;;;;;;;;5074364;28;20244;-85
2023/05/04 11:28:05;;;;;;;3.55;3.25;;;;;;;;;;5074405;28;20678;-84
2023/05/04 11:30:33;;;;;;;3.40;3.10;;;;;;;;;;5074068;28;20239;-84
2023/05/04 11:33:00;;;;;;;4.22;3.53;;;;;;;;;;5074226;28;20579;-85
2023/05/04 11:35:27;;;;;;;3.47;2.97;;;;;;;;;;5074294;28;20240;-84
2023/05/04 11:37:55;;;;;;;3.33;3.03;;;;;;;;;;5074788;28;20212;-84
2023/05/04 11:40:23;;;;;;;3.65;3.03;;;;;;;;;;5074103;28;20283;-85
2023/05/04 11:42:50;;;;;;;3.25;2.80;;;;;;;;;;5074553;28;20208;-84
2023/05/04 11:45:19;;;;;;;3.50;2.75;;;;;;;;;;5074015;28;20229;-85
2023/05/04 11:47:47;;;;;;;3.38;2.83;;;;;;;;;;5074789;28;20209;-85
2023/05/04 11:50:15;;;;;;;3.00;2.80;;;;;;;;;;5072600;28;20237;-85
2023/05/04 11:52:43;;;;;;;3.55;3.03;;;;;;;;;;5074453;28;20209;-84
2023/05/04 11:55:11;;;;;;;2.63;2.42;;;;;;;;;;5073816;28;20244;-84
2023/05/04 11:57:38;;;;;;;3.45;3.15;;;;;;;;;;5074534;28;20284;-84
2023/05/04 12:00:06;;;;;;;4.43;2.58;;;;;;;;;;5073728;28;20591;-85
2023/05/04 12:02:35;;;;;;;4.90;3.10;;;;;;;;;;5074098;28;20254;-84
2023/05/04 12:05:03;;;;;;;2.83;2.63;;;;;;;;;;5073676;28;20236;-84
2023/05/04 12:07:30;;;;;;;3.67;3.15;;;;;;;;;;5073923;28;20713;-84
2023/05/04 12:09:58;;;;;;;2.78;2.58;;;;;;;;;;5073753;28;20233;-84
2023/05/04 12:12:35;;;;;;;2.83;2.35;;;;;;;;;;5073999;28;20206;-84
2023/05/04 12:15:02;;;;;;;2.72;2.53;;;;;;;;;;5073775;28;20315;-85
2023/05/04 12:17:41;;;;;;;3.00;2.80;;;;;;;;;;5073870;28;20225;-85
2023/05/04 12:20:08;;;;;;;4.22;3.28;;;;;;;;;;5073414;28;20253;-85
2023/05/04 12:22:36;;;;;;;3.67;2.63;;;;;;;;;;5074102;28;20213;-86
2023/05/04 12:25:03;;;;;;;6.60;3.42;;;;;;;;;;5073536;28;20229;-85
2023/05/04 12:27:30;;;;;;;4.20;2.42;;;;;;;;;;5073860;28;20209;-85
2023/05/04 12:29:57;;;;;;;3.47;2.75;;;;;;;;;;5073344;28;20229;-85
2023/05/04 12:32:24;;;;;;;4.07;3.00;;;;;;;;;;5073763;28;20690;-85
2023/05/04 12:34:53;;;;;;;3.38;2.72;;;;;;;;;;5073255;28;20233;-85
2023/05/04 12:37:20;;;;;;;3.72;2.67;;;;;;;;;;5073310;28;20845;-85
2023/05/04 12:39:47;;;;;;;4.97;3.03;;;;;;;;;;5073013;28;20229;-85
2023/05/04 12:42:14;;;;;;;3.05;2.55;;;;;;;;;;5073284;28;20220;-85
2023/05/04 12:44:41;;;;;;;2.70;2.50;;;;;;;;;;5072733;28;20212;-85
2023/05/04 12:47:08;;;;;;;3.13;2.78;;;;;;;;;;5073162;28;20711;-84
2023/05/04 12:49:35;;;;;;;2.67;2.03;;;;;;;;;;5073001;28;20580;-85
2023/05/04 12:52:03;;;;;;;3.40;2.28;;;;;;;;;;5072980;28;20210;-85
2023/05/04 12:54:30;;;;;;;2.88;2.15;;;;;;;;;;5072243;28;20228;-85
2023/05/04 12:56:57;;;;;;;3.17;2.50;;;;;;;;;;5072862;28;20225;-85
2023/05/04 12:59:25;;;;;;;2.55;2.33;;;;;;;;;;5072122;28;20205;-85
2023/05/04 13:01:52;;;;;;;2.42;2.22;;;;;;;;;;5072332;28;20686;-84
2023/05/04 13:04:20;;;;;;;2.45;2.03;;;;;;;;;;5072890;28;20671;-85
2023/05/04 13:06:47;;;;;;;2.38;2.17;;;;;;;;;;5072885;28;20253;-84
2023/05/04 13:09:16;;;;;;;2.30;2.10;;;;;;;;;;5072769;28;20213;-84
2023/05/04 13:11:43;;;;;;;3.35;2.28;;;;;;;;;;5072305;28;20230;-85
2023/05/04 13:14:10;;;;;;;2.95;2.45;;;;;;;;;;5074384;28;20282;-84
2023/05/04 13:16:37;;;;;;;6.03;2.13;;;;;;;;;;5072137;28;20237;-85
2023/05/04 13:19:04;;;;;;;3.08;2.47;;;;;;;;;;5072666;28;20209;-84
2023/05/04 13:21:31;;;;;;;3.13;2.83;;;;;;;;;;5072190;28;20244;-85
2023/05/04 13:23:59;;;;;;;2.70;2.50;;;;;;;;;;5072403;28;20208;-84
2023/05/04 13:26:27;;;;;;;5.15;2.85;;;;;;;;;;5071918;28;20294;-85
2023/05/04 13:28:54;;;;;;;2.55;2.17;;;;;;;;;;5072411;28;20209;-85
2023/05/04 13:31:21;;;;;;;3.85;2.25;;;;;;;;;;5072007;28;20237;-84
2023/05/04 13:33:49;;;;;;;3.53;2.40;;;;;;;;;;5072053;28;20205;-85
2023/05/04 13:36:16;;;;;;;3.13;2.45;;;;;;;;;;5071796;28;20236;-84
2023/05/04 13:38:43;;;;;;;3.33;2.35;;;;;;;;;;5072565;28;20205;-84
2023/05/04 13:41:10;;;;;;;3.13;2.60;;;;;;;;;;5071772;28;20240;-85
2023/05/04 13:43:38;;;;;;;2.88;2.50;;;;;;;;;;5072589;28;20209;-85
2023/05/04 13:46:06;;;;;;;4.50;2.40;;;;;;;;;;5071875;28;20237;-84
2023/05/04 13:48:33;;;;;;;2.35;2.15;;;;;;;;;;5072260;28;20209;-85
2023/05/04 13:51:03;;;;;;;2.80;2.33;;;;;;;;;;5071777;28;20342;-84
2023/05/04 13:53:30;;;;;;;4.07;2.70;;;;;;;;;;5072148;28;20296;-84
2023/05/04 13:55:57;;;;;;;2.50;2.03;;;;;;;;;;5071575;28;20319;-85
2023/05/04 13:58:24;;;;;;;2.00;1.90;;;;;;;;;;5072548;28;20213;-84
2023/05/04 14:00:55;;;;;;;5.82;2.40;;;;;;;;;;5074084;28;20733;-84
2023/05/04 14:03:22;;;;;;;2.63;2.42;;;;;;;;;;5073166;28;20205;-84
2023/05/04 14:05:49;;;;;;;2.55;2.10;;;;;;;;;;5071911;28;20707;-85
2023/05/04 14:08:16;;;;;;;2.50;2.30;;;;;;;;;;5072222;28;20593;-85
2023/05/04 14:10:43;;;;;;;4.53;2.20;;;;;;;;;;5071513;28;20734;-84
2023/05/04 14:13:10;;;;;;;2.83;1.98;;;;;;;;;;5071360;28;20201;-85
2023/05/04 14:15:37;;;;;;;2.50;2.20;;;;;;;;;;5071351;28;20246;-85
2023/05/04 14:18:05;;;;;;;3.28;2.10;;;;;;;;;;5072224;28;20221;-84
2023/05/04 14:20:32;;;;;;;1.98;1.88;;;;;;;;;;5071548;28;20704;-85
2023/05/04 14:22:59;;;;;;;2.95;2.50;;;;;;;;;;5071628;28;20209;-84
2023/05/04 14:25:26;;;;;;;2.50;1.80;;;;;;;;;;5071580;28;20240;-84
2023/05/04 14:27:53;;;;;;;3.08;2.00;;;;;;;;;;5072160;28;20205;-84
2023/05/04 14:30:21;;;;;;;1.67;1.58;;;;;;;;;;5064469;28;20232;-85
2023/05/04 14:32:48;;;;;;;2.78;2.05;;;;;;;;;;5043136;28;20205;-84
2023/05/04 14:35:17;;;;;;;3.83;1.95;;;;;;;;;;5031324;28;20766;-86
2023/05/04 14:37:44;;;;;;;2.45;2.25;;;;;;;;;;5032068;28;20211;-86
2023/05/04 14:40:12;;;;;;;2.40;2.03;;;;;;;;;;5031218;28;20234;-84
2023/05/04 14:42:39;;;;;;;3.67;2.33;;;;;;;;;;5034503;28;20228;-86
2023/05/04 14:45:06;;;;;;;3.03;2.28;;;;;;;;;;5032646;28;20237;-84
2023/05/04 14:47:33;;;;;;;2.25;2.05;;;;;;;;;;5031782;28;20211;-84
2023/05/04 14:50:01;;;;;;;2.45;2.25;;;;;;;;;;5031354;28;20234;-84
2023/05/04 14:52:29;;;;;;;3.33;1.80;;;;;;;;;;5031551;28;20662;-82
2023/05/04 14:54:56;;;;;;;3.85;2.15;;;;;;;;;;5031000;28;20723;-83